Strona główna
METAR-TAF:

METAR-TAF

Lotnisko :

Le Mans, Francja

Szerokość geograficzna: 47-56N, Długość geograficzna: 000-12E, wysokość: 59 m

Aktualna obserwacja pogody

Raport powstał 49 minut temu, godzina 12:00 UTC
Wiatr 5 kt z kierunków zmiennych
Temperatura 28°C
Wilgotność 32%
Ciśnienie 1014 hPa
Widzialność 10 km lub więcej
Brak chmur poniżej 1500 m i brak chmur cumulonimbus

METAR: LFRM 171200Z AUTO VRB05KT CAVOK 28/10 Q1014 NOSIG

czas: 14:49 (12:49 UTC)

Prognoza

Raport powstał 1 godzina i 49 minut temu, godzina 11:00 UTC
Prognoza ważna od 17 godzina 12 UTC do 18 godzina 12 UTC
Wiatr 5 kt od zachód
Widzialność 10 km lub więcej
Brak chmur poniżej 1500 m i brak chmur cumulonimbus
Prawdopodobieństwo 30% :
Przejściowo
od 17 godzina 19 UTC do 17 godzina 21 UTC
Wiatr 12 kt od północno-północny zachód

TAF: LFRM 171100Z 1712/1812 27005KT CAVOK PROB30 TEMPO 1719/1721 34012KT

Obserwacja i prognoza pogody dla ponad 4000 lotnisk (raport METAR i TAF).

Dostępne stacje oznaczono żółtymi i czerwonymi punktami na mapie.

Najedź kursorem aby zobaczyć nazwę stacji.

Kliknij aby zobaczyć obserwacje i prognozy pogody.

Aby zmienić mapę: kliknij na zielony przycisk z czarnym krzyżykiem, aby powiększyć; na zielony przycisk z myślnikiem, aby pomniejszyć; na zielone strzałki, aby przejść do map sąsiednich.


METAR-TAF: